createdAt,value
2018-01-13T00:00:05.377Z,101583.54
2018-01-13T00:01:07.871Z,101588.64
2018-01-13T00:02:10.369Z,101588.91
2018-01-13T00:03:12.858Z,101594.86
2018-01-13T00:04:15.317Z,101586.68
2018-01-13T00:05:17.803Z,101592.56
2018-01-13T00:06:20.301Z,101587.36
2018-01-13T00:07:22.765Z,101583.23
2018-01-13T00:08:25.244Z,101592.44
2018-01-13T00:09:27.707Z,101590.63
2018-01-13T00:10:30.224Z,101590.00
2018-01-13T00:11:32.709Z,101588.79
2018-01-13T00:12:35.181Z,101586.94
2018-01-13T00:13:37.670Z,101590.00
2018-01-13T00:14:40.213Z,101592.95
2018-01-13T00:15:42.688Z,101587.52
2018-01-13T00:16:45.178Z,101592.87
2018-01-13T00:17:47.646Z,101590.18
2018-01-13T00:18:50.121Z,101592.19
2018-01-13T00:19:52.585Z,101582.23
2018-01-13T00:20:55.050Z,101590.80
2018-01-13T00:21:57.537Z,101594.12
2018-01-13T00:23:00.020Z,101591.91
2018-01-13T00:24:02.491Z,101593.73
2018-01-13T00:25:04.971Z,101589.69
2018-01-13T00:26:07.431Z,101597.11
2018-01-13T00:27:09.918Z,101592.70
2018-01-13T00:28:12.382Z,101590.22
2018-01-13T00:29:14.872Z,101593.97
2018-01-13T00:30:17.350Z,101585.97
2018-01-13T00:31:19.837Z,101584.09
2018-01-13T00:32:22.336Z,101585.80
2018-01-13T00:33:24.815Z,101589.91
2018-01-13T00:34:27.277Z,101588.22
2018-01-13T00:35:29.759Z,101584.04
2018-01-13T00:36:32.244Z,101580.70
2018-01-13T00:37:34.748Z,101582.83
2018-01-13T00:38:37.214Z,101589.36
2018-01-13T00:39:39.689Z,101576.03
2018-01-13T00:40:42.162Z,101580.91
2018-01-13T00:41:44.640Z,101571.55
2018-01-13T00:42:47.130Z,101574.12
2018-01-13T00:43:49.590Z,101573.56
2018-01-13T00:44:52.064Z,101578.44
2018-01-13T00:45:54.559Z,101572.56
2018-01-13T00:46:57.044Z,101573.44
2018-01-13T00:47:59.537Z,101574.94
2018-01-13T00:49:02.011Z,101573.32
2018-01-13T00:50:04.492Z,101574.44
2018-01-13T00:51:06.986Z,101579.45
2018-01-13T00:52:09.538Z,101572.57
2018-01-13T00:53:12.088Z,101575.56
2018-01-13T00:54:14.577Z,101574.44
2018-01-13T00:55:17.046Z,101572.20
2018-01-13T00:56:19.510Z,101574.99
2018-01-13T00:57:21.986Z,101572.82
2018-01-13T00:58:24.484Z,101569.15
2018-01-13T00:59:26.950Z,101571.41
2018-01-13T01:00:29.427Z,101571.34
2018-01-13T01:01:31.893Z,101570.13
2018-01-13T01:02:34.360Z,101568.18
2018-01-13T01:03:36.844Z,101568.44
2018-01-13T01:04:39.320Z,101568.80
2018-01-13T01:05:41.794Z,101570.41
2018-01-13T01:06:44.278Z,101561.24
2018-01-13T01:07:46.773Z,101569.55
2018-01-13T01:08:49.258Z,101565.59
2018-01-13T01:09:51.721Z,101565.90
2018-01-13T01:10:54.185Z,101566.33
2018-01-13T01:11:56.653Z,101563.02
2018-01-13T01:12:59.139Z,101566.72
2018-01-13T01:14:01.621Z,101566.09
2018-01-13T01:15:04.143Z,101560.77
2018-01-13T01:16:06.643Z,101561.16
2018-01-13T01:17:09.124Z,101558.59
2018-01-13T01:18:11.588Z,101554.66
2018-01-13T01:19:14.069Z,101557.70
2018-01-13T01:20:16.539Z,101561.41
2018-01-13T01:21:19.019Z,101557.67
2018-01-13T01:22:21.547Z,101559.99
2018-01-13T01:23:24.020Z,101560.56
2018-01-13T01:24:26.517Z,101554.99
2018-01-13T01:25:28.999Z,101564.58
2018-01-13T01:26:31.470Z,101564.40
2018-01-13T01:27:33.952Z,101557.98
2018-01-13T01:28:36.414Z,101559.37
2018-01-13T01:29:38.898Z,101561.03
2018-01-13T01:30:41.381Z,101562.70
2018-01-13T01:31:43.857Z,101566.66
2018-01-13T01:32:46.366Z,101567.09
2018-01-13T01:33:48.844Z,101571.67
2018-01-13T01:34:51.326Z,101570.53
2018-01-13T01:35:53.793Z,101571.84
2018-01-13T01:36:56.276Z,101566.97
2018-01-13T01:37:58.773Z,101570.37
2018-01-13T01:39:01.247Z,101571.55
2018-01-13T01:40:03.743Z,101570.23
2018-01-13T01:41:06.206Z,101569.59
2018-01-13T01:42:08.675Z,101573.11
2018-01-13T01:43:11.164Z,101572.55
2018-01-13T01:44:13.643Z,101576.30
2018-01-13T01:45:16.130Z,101569.41
2018-01-13T01:46:18.598Z,101568.02
2018-01-13T01:47:21.073Z,101571.33
2018-01-13T01:48:26.498Z,101572.72
2018-01-13T01:49:28.961Z,101569.41
2018-01-13T01:50:31.446Z,101569.20
2018-01-13T01:51:33.929Z,101564.13
2018-01-13T01:52:36.390Z,101566.17
2018-01-13T01:53:38.876Z,101563.95
2018-01-13T01:54:41.356Z,101561.00
2018-01-13T01:55:43.880Z,101561.50
2018-01-13T01:56:46.347Z,101560.73
2018-01-13T01:57:48.849Z,101564.64
2018-01-13T01:58:51.318Z,101558.42
2018-01-13T01:59:53.795Z,101559.61
2018-01-13T02:00:56.279Z,101559.43
2018-01-13T02:01:58.742Z,101565.36
2018-01-13T02:03:01.225Z,101563.73
2018-01-13T02:04:03.698Z,101563.60
2018-01-13T02:05:06.173Z,101558.14
2018-01-13T02:06:08.666Z,101559.27
2018-01-13T02:07:11.135Z,101560.02
2018-01-13T02:08:13.620Z,101554.34
2018-01-13T02:09:16.104Z,101554.16
2018-01-13T02:10:18.587Z,101550.86
2018-01-13T02:11:21.092Z,101552.01
2018-01-13T02:12:23.569Z,101544.86
2018-01-13T02:13:26.053Z,101551.17
2018-01-13T02:14:28.519Z,101553.09
2018-01-13T02:15:30.986Z,101550.23
2018-01-13T02:16:33.503Z,101541.80
2018-01-13T02:17:35.979Z,101539.49
2018-01-13T02:18:38.473Z,101541.02
2018-01-13T02:19:40.938Z,101537.10
2018-01-13T02:20:43.411Z,101536.28
2018-01-13T02:21:45.920Z,101537.47
2018-01-13T02:22:48.403Z,101534.30
2018-01-13T02:23:50.858Z,101538.94
2018-01-13T02:24:53.326Z,101533.38
2018-01-13T02:25:55.794Z,101534.39
2018-01-13T02:26:58.292Z,101532.00
2018-01-13T02:28:00.762Z,101540.20
2018-01-13T02:29:03.221Z,101532.00
2018-01-13T02:30:05.684Z,101532.48
2018-01-13T02:31:08.191Z,101530.62
2018-01-13T02:32:10.699Z,101531.47
2018-01-13T02:33:13.183Z,101528.59
2018-01-13T02:34:15.667Z,101528.34
2018-01-13T02:35:18.146Z,101528.97
2018-01-13T02:36:20.627Z,101526.89
2018-01-13T02:37:23.140Z,101531.59
2018-01-13T02:38:25.679Z,101525.91
2018-01-13T02:39:28.146Z,101529.46
2018-01-13T02:40:30.613Z,101527.88
2018-01-13T02:41:33.094Z,101526.61
2018-01-13T02:42:35.596Z,101531.11
2018-01-13T02:43:38.076Z,101526.08
2018-01-13T02:44:40.560Z,101522.52
2018-01-13T02:45:43.042Z,101523.02
2018-01-13T02:46:45.599Z,101520.63
2018-01-13T02:47:48.101Z,101517.11
2018-01-13T02:48:50.565Z,101518.75
2018-01-13T02:49:53.047Z,101516.23
2018-01-13T02:50:55.537Z,101522.31
2018-01-13T02:51:58.008Z,101524.60
2018-01-13T02:53:00.508Z,101520.45
2018-01-13T02:54:03.012Z,101521.43
2018-01-13T02:55:05.482Z,101519.28
2018-01-13T02:56:07.942Z,101519.28
2018-01-13T02:57:10.420Z,101521.94
2018-01-13T02:58:12.932Z,101515.42
2018-01-13T02:59:15.404Z,101514.64
2018-01-13T03:00:17.879Z,101517.36
2018-01-13T03:01:20.360Z,101510.63
2018-01-13T03:02:22.829Z,101514.83
2018-01-13T03:03:25.323Z,101517.73
2018-01-13T03:04:27.859Z,101513.38
2018-01-13T03:05:30.331Z,101510.15
2018-01-13T03:06:32.799Z,101514.69
2018-01-13T03:07:35.276Z,101514.77
2018-01-13T03:08:37.772Z,101509.51
2018-01-13T03:09:40.235Z,101511.17
2018-01-13T03:10:43.070Z,101509.05
2018-01-13T03:11:45.599Z,101514.77
2018-01-13T03:12:48.076Z,101511.27
2018-01-13T03:13:50.567Z,101512.02
2018-01-13T03:14:53.049Z,101514.81
2018-01-13T03:15:55.528Z,101517.60
2018-01-13T03:16:58.006Z,101511.02
2018-01-13T03:18:00.469Z,101513.19
2018-01-13T03:19:02.964Z,101512.43
2018-01-13T03:20:05.426Z,101503.17
2018-01-13T03:21:07.930Z,101514.69
2018-01-13T03:22:10.430Z,101501.69
2018-01-13T03:23:12.907Z,101505.48
2018-01-13T03:24:15.390Z,101502.97
2018-01-13T03:25:17.850Z,101503.52
2018-01-13T03:26:20.309Z,101506.12
2018-01-13T03:27:22.784Z,101504.11
2018-01-13T03:28:25.255Z,101504.22
2018-01-13T03:29:27.759Z,101501.64
2018-01-13T03:30:30.240Z,101503.34
2018-01-13T03:31:32.731Z,101501.42
2018-01-13T03:32:35.205Z,101502.86
2018-01-13T03:33:37.665Z,101500.20
2018-01-13T03:34:40.146Z,101496.53
2018-01-13T03:35:42.604Z,101498.38
2018-01-13T03:36:45.080Z,101499.17
2018-01-13T03:37:47.592Z,101501.45
2018-01-13T03:38:50.072Z,101499.72
2018-01-13T03:39:52.568Z,101495.03
2018-01-13T03:40:55.039Z,101501.81
2018-01-13T03:41:57.506Z,101498.73
2018-01-13T03:42:59.979Z,101494.52
2018-01-13T03:44:02.460Z,101497.05
2018-01-13T03:45:04.963Z,101498.22
2018-01-13T03:46:07.453Z,101491.30
2018-01-13T03:47:09.920Z,101495.74
2018-01-13T03:48:12.377Z,101495.23
2018-01-13T03:49:14.842Z,101493.77
2018-01-13T03:50:17.344Z,101491.48
2018-01-13T03:51:19.814Z,101494.74
2018-01-13T03:52:22.270Z,101494.34
2018-01-13T03:53:24.747Z,101497.27
2018-01-13T03:54:27.224Z,101495.98
2018-01-13T03:55:29.714Z,101497.35
2018-01-13T03:56:32.181Z,101498.93
2018-01-13T03:57:34.637Z,101496.92
2018-01-13T03:58:37.172Z,101498.31
2018-01-13T03:59:39.639Z,101498.06
2018-01-13T04:00:42.129Z,101499.35
2018-01-13T04:01:44.605Z,101496.70
2018-01-13T04:02:47.087Z,101492.70
2018-01-13T04:03:49.552Z,101493.59
2018-01-13T04:04:52.031Z,101492.36
2018-01-13T04:05:54.510Z,101486.83
2018-01-13T04:06:56.965Z,101496.05
2018-01-13T04:07:59.422Z,101491.16
2018-01-13T04:09:01.967Z,101486.86
2018-01-13T04:10:04.448Z,101484.77
2018-01-13T04:11:06.931Z,101488.39
2018-01-13T04:12:09.395Z,101483.50
2018-01-13T04:13:11.854Z,101481.63
2018-01-13T04:14:14.331Z,101479.32
2018-01-13T04:15:16.812Z,101482.98
2018-01-13T04:16:19.299Z,101483.58
2018-01-13T04:17:21.781Z,101480.87
2018-01-13T04:18:24.250Z,101482.08
2018-01-13T04:19:26.731Z,101482.44
2018-01-13T04:20:29.198Z,101483.11
2018-01-13T04:21:31.700Z,101479.05
2018-01-13T04:22:34.180Z,101479.75
2018-01-13T04:23:36.656Z,101479.70
2018-01-13T04:24:39.122Z,101480.48
2018-01-13T04:25:41.598Z,101487.76
2018-01-13T04:26:44.081Z,101474.24
2018-01-13T04:27:46.556Z,101478.32
2018-01-13T04:28:49.168Z,101479.64
2018-01-13T04:29:51.765Z,101474.26
2018-01-13T04:30:54.239Z,101475.02
2018-01-13T04:31:56.744Z,101475.14
2018-01-13T04:32:59.220Z,101469.59
2018-01-13T04:34:01.677Z,101472.88
2018-01-13T04:35:04.153Z,101473.83
2018-01-13T04:36:06.617Z,101474.96
2018-01-13T04:37:09.114Z,101473.38
2018-01-13T04:38:11.581Z,101472.75
2018-01-13T04:39:14.045Z,101475.56
2018-01-13T04:40:16.519Z,101475.45
2018-01-13T04:41:18.997Z,101477.80
2018-01-13T04:42:21.496Z,101476.11
2018-01-13T04:43:23.958Z,101472.43
2018-01-13T04:44:26.419Z,101476.28
2018-01-13T04:45:28.893Z,101475.89
2018-01-13T04:46:31.367Z,101472.94
2018-01-13T04:47:33.854Z,101476.48
2018-01-13T04:48:36.328Z,101475.98
2018-01-13T04:49:38.804Z,101480.58
2018-01-13T04:50:41.262Z,101475.98
2018-01-13T04:51:43.736Z,101463.42
2018-01-13T04:52:46.229Z,101468.64
2018-01-13T04:53:48.694Z,101467.25
2018-01-13T04:54:51.168Z,101465.31
2018-01-13T04:55:53.644Z,101464.20
2018-01-13T04:56:56.106Z,101470.59
2018-01-13T04:57:58.577Z,101460.45
2018-01-13T04:59:01.055Z,101466.72
2018-01-13T05:00:03.525Z,101469.67
2018-01-13T05:01:06.001Z,101466.11
2018-01-13T05:02:08.475Z,101466.31
2018-01-13T05:03:10.961Z,101462.20
2018-01-13T05:04:13.452Z,101465.27
2018-01-13T05:05:15.918Z,101469.08
2018-01-13T05:06:18.377Z,101471.73
2018-01-13T05:07:20.860Z,101466.36
2018-01-13T05:08:23.359Z,101465.75
2018-01-13T05:09:25.817Z,101465.45
2018-01-13T05:10:28.285Z,101466.97
2018-01-13T05:11:30.753Z,101466.28
2018-01-13T05:12:33.235Z,101467.58
2018-01-13T05:13:35.741Z,101451.55
2018-01-13T05:14:38.207Z,101466.05
2018-01-13T05:15:40.665Z,101471.37
2018-01-13T05:16:43.140Z,101466.47
2018-01-13T05:17:45.620Z,101472.69
2018-01-13T05:18:48.097Z,101470.41
2018-01-13T05:19:50.562Z,101471.59
2018-01-13T05:20:53.025Z,101472.87
2018-01-13T05:21:55.500Z,101474.89
2018-01-13T05:22:57.961Z,101470.61
2018-01-13T05:24:00.470Z,101473.94
2018-01-13T05:25:02.951Z,101475.09
2018-01-13T05:26:05.439Z,101471.30
2018-01-13T05:27:07.915Z,101468.27
2018-01-13T05:28:10.373Z,101466.99
2018-01-13T05:29:12.853Z,101470.56
2018-01-13T05:30:15.334Z,101465.62
2018-01-13T05:31:17.812Z,101467.21
2018-01-13T05:32:20.273Z,101460.83
2018-01-13T05:33:22.748Z,101460.73
2018-01-13T05:34:25.247Z,101465.34
2018-01-13T05:35:27.706Z,101460.37
2018-01-13T05:36:30.254Z,101463.00
2018-01-13T05:37:32.729Z,101467.57
2018-01-13T05:38:35.211Z,101460.66
2018-01-13T05:39:37.712Z,101464.48
2018-01-13T05:40:40.187Z,101460.52
2018-01-13T05:41:42.650Z,101460.86
2018-01-13T05:42:45.114Z,101462.61
2018-01-13T05:43:47.578Z,101465.09
2018-01-13T05:44:50.058Z,101460.64
2018-01-13T05:45:52.539Z,101461.91
2018-01-13T05:46:55.018Z,101466.72
2018-01-13T05:47:57.511Z,101462.98
2018-01-13T05:48:59.988Z,101465.21
2018-01-13T05:50:02.464Z,101466.11
2018-01-13T05:51:04.923Z,101468.73
2018-01-13T05:52:07.387Z,101467.09
2018-01-13T05:53:09.845Z,101465.98
2018-01-13T05:54:12.316Z,101459.94
2018-01-13T05:55:14.797Z,101459.38
2018-01-13T05:56:17.253Z,101459.47
2018-01-13T05:57:19.716Z,101461.02
2018-01-13T05:58:22.195Z,101464.02
2018-01-13T05:59:24.671Z,101459.06
2018-01-13T06:00:27.170Z,101460.20
2018-01-13T06:01:29.633Z,101461.34
2018-01-13T06:02:32.132Z,101462.28
2018-01-13T06:03:34.607Z,101465.89
2018-01-13T06:04:37.079Z,101461.59
2018-01-13T06:05:39.590Z,101462.62
2018-01-13T06:06:42.074Z,101456.66
2018-01-13T06:07:44.529Z,101461.29
2018-01-13T06:08:47.003Z,101454.25
2018-01-13T06:09:49.484Z,101458.62
2018-01-13T06:10:51.970Z,101458.33
2018-01-13T06:11:54.453Z,101459.84
2018-01-13T06:12:56.928Z,101451.62
2018-01-13T06:13:59.399Z,101453.39
2018-01-13T06:15:01.878Z,101464.36
2018-01-13T06:16:04.371Z,101460.45
2018-01-13T06:17:06.897Z,101462.59
2018-01-13T06:18:09.354Z,101452.89
2018-01-13T06:19:11.826Z,101458.35
2018-01-13T06:20:14.289Z,101464.07
2018-01-13T06:21:16.807Z,101461.67
2018-01-13T06:22:19.269Z,101456.68
2018-01-13T06:23:21.755Z,101456.45
2018-01-13T06:24:24.214Z,101456.38
2018-01-13T06:25:26.736Z,101457.31
2018-01-13T06:26:29.244Z,101461.24
2018-01-13T06:27:31.701Z,101459.16
2018-01-13T06:28:34.172Z,101456.30
2018-01-13T06:29:36.669Z,101459.39
2018-01-13T06:30:39.143Z,101461.88
2018-01-13T06:31:41.671Z,101459.59
2018-01-13T06:32:44.668Z,101460.69
2018-01-13T06:33:47.168Z,101459.06
2018-01-13T06:34:49.649Z,101462.39
2018-01-13T06:35:52.124Z,101466.66
2018-01-13T06:36:54.623Z,101458.69
2018-01-13T06:37:57.100Z,101459.66
2018-01-13T06:38:59.580Z,101461.13
2018-01-13T06:40:02.064Z,101462.07
2018-01-13T06:41:04.531Z,101464.92
2018-01-13T06:42:07.028Z,101458.40
2018-01-13T06:43:09.486Z,101462.49
2018-01-13T06:44:11.973Z,101463.89
2018-01-13T06:45:14.444Z,101457.09
2018-01-13T06:46:16.943Z,101458.70
2018-01-13T06:47:19.438Z,101462.03
2018-01-13T06:48:21.912Z,101454.52
2018-01-13T06:49:24.378Z,101461.00
2018-01-13T06:50:26.837Z,101460.17
2018-01-13T06:51:29.316Z,101461.95
2018-01-13T06:52:31.811Z,101464.24
2018-01-13T06:53:34.274Z,101465.02
2018-01-13T06:54:36.753Z,101458.38
2018-01-13T06:55:39.227Z,101455.58
2018-01-13T06:56:41.706Z,101457.41
2018-01-13T06:57:44.209Z,101457.31
2018-01-13T06:58:46.692Z,101457.20
2018-01-13T06:59:49.154Z,101454.64
2018-01-13T07:00:51.626Z,101452.03
2018-01-13T07:01:54.094Z,101451.66
2018-01-13T07:02:56.614Z,101456.41
2018-01-13T07:03:59.090Z,101448.95
2018-01-13T07:05:01.551Z,101452.81
2018-01-13T07:06:04.031Z,101445.98
2018-01-13T07:07:06.511Z,101450.64
2018-01-13T07:08:09.005Z,101453.25
2018-01-13T07:09:11.461Z,101457.70
2018-01-13T07:10:13.940Z,101462.78
2018-01-13T07:11:16.422Z,101456.22
2018-01-13T07:12:18.900Z,101457.45
2018-01-13T07:13:21.404Z,101457.00
2018-01-13T07:14:23.866Z,101461.59
2018-01-13T07:15:26.343Z,101463.46
2018-01-13T07:16:28.845Z,101460.45
2018-01-13T07:17:31.318Z,101459.61
2018-01-13T07:18:33.803Z,101451.02
2018-01-13T07:19:36.284Z,101457.66
2018-01-13T07:20:38.760Z,101461.02
2018-01-13T07:21:41.235Z,101457.75
2018-01-13T07:22:43.722Z,101462.95
2018-01-13T07:23:46.219Z,101458.19
2018-01-13T07:24:48.727Z,101462.17
2018-01-13T07:25:51.220Z,101463.66
2018-01-13T07:26:53.717Z,101466.45
2018-01-13T07:27:56.262Z,101465.31
2018-01-13T07:28:58.753Z,101462.92
2018-01-13T07:30:01.228Z,101465.88
2018-01-13T07:31:03.708Z,101469.10
2018-01-13T07:32:06.183Z,101465.70
2018-01-13T07:33:08.638Z,101461.37
2018-01-13T07:34:11.122Z,101468.28
2018-01-13T07:35:13.605Z,101462.03
2018-01-13T07:36:16.084Z,101461.47
2018-01-13T07:37:18.546Z,101460.08
2018-01-13T07:38:21.019Z,101460.45
2018-01-13T07:39:23.509Z,101455.70
2018-01-13T07:40:25.984Z,101464.67
2018-01-13T07:41:28.460Z,101460.70
2018-01-13T07:42:30.940Z,101461.84
2018-01-13T07:43:33.441Z,101463.08
2018-01-13T07:44:35.939Z,101459.06
2018-01-13T07:45:38.402Z,101462.93
2018-01-13T07:46:40.880Z,101464.69
2018-01-13T07:47:43.353Z,101468.16
2018-01-13T07:48:45.830Z,101460.94
2018-01-13T07:49:48.323Z,101463.34
2018-01-13T07:50:50.796Z,101463.03
2018-01-13T07:51:53.257Z,101461.09
2018-01-13T07:52:55.732Z,101471.06
2018-01-13T07:53:58.204Z,101470.82
2018-01-13T07:55:00.686Z,101472.84
2018-01-13T07:56:03.145Z,101472.25
2018-01-13T07:57:05.627Z,101468.25
2018-01-13T07:58:08.100Z,101475.22
2018-01-13T07:59:10.621Z,101476.95
2018-01-13T08:00:13.124Z,101480.84
2018-01-13T08:01:15.596Z,101479.49
2018-01-13T08:02:18.054Z,101477.05
2018-01-13T08:03:20.509Z,101474.24
2018-01-13T08:04:22.976Z,101474.11
2018-01-13T08:05:25.476Z,101476.16
2018-01-13T08:06:27.938Z,101477.19
2018-01-13T08:07:30.400Z,101475.57
2018-01-13T08:08:32.873Z,101479.72
2018-01-13T08:09:35.392Z,101476.41
2018-01-13T08:10:37.870Z,101477.95
2018-01-13T08:11:40.343Z,101472.45
2018-01-13T08:12:42.812Z,101471.23
2018-01-13T08:13:45.277Z,101478.61
2018-01-13T08:14:47.752Z,101480.32
2018-01-13T08:15:50.230Z,101484.98
2018-01-13T08:16:52.704Z,101478.53
2018-01-13T08:17:55.180Z,101480.39
2018-01-13T08:18:57.642Z,101485.64
2018-01-13T08:20:00.108Z,101487.30
2018-01-13T08:21:02.586Z,101488.80
2018-01-13T08:22:05.063Z,101495.98
2018-01-13T08:23:07.537Z,101488.05
2018-01-13T08:24:09.997Z,101489.67
2018-01-13T08:25:12.465Z,101499.21
2018-01-13T08:26:14.959Z,101497.73
2018-01-13T08:27:17.422Z,101499.59
2018-01-13T08:28:19.903Z,101501.01
2018-01-13T08:29:22.389Z,101501.55
2018-01-13T08:30:24.854Z,101501.84
2018-01-13T08:31:27.511Z,101503.56
2018-01-13T08:32:29.979Z,101500.86
2018-01-13T08:33:32.445Z,101499.28
2018-01-13T08:34:34.901Z,101505.09
2018-01-13T08:35:37.361Z,101502.55
2018-01-13T08:36:39.837Z,101505.02
2018-01-13T08:37:42.315Z,101505.33
2018-01-13T08:38:44.791Z,101499.84
2018-01-13T08:39:47.250Z,101508.91
2018-01-13T08:40:49.723Z,101506.77
2018-01-13T08:41:52.209Z,101497.04
2018-01-13T08:42:54.733Z,101500.48
2018-01-13T08:43:57.165Z,101509.46
2018-01-13T08:44:59.629Z,101505.44
2018-01-13T08:46:02.103Z,101509.97
2018-01-13T08:47:04.589Z,101508.61
2018-01-13T08:48:07.068Z,101505.75
2018-01-13T08:49:09.541Z,101507.92
2018-01-13T08:50:12.042Z,101509.59
2018-01-13T08:51:14.470Z,101510.27
2018-01-13T08:52:16.958Z,101511.28
2018-01-13T08:53:19.421Z,101514.19
2018-01-13T08:54:21.882Z,101520.20
2018-01-13T08:55:24.351Z,101511.60
2018-01-13T08:56:26.810Z,101515.97
2018-01-13T08:57:29.307Z,101514.84
2018-01-13T08:58:31.765Z,101514.52
2018-01-13T08:59:34.235Z,101531.28
2018-01-13T09:00:36.702Z,101528.09
2018-01-13T09:01:52.068Z,101529.30
2018-01-13T09:02:54.535Z,101525.91
2018-01-13T09:03:56.994Z,101534.44
2018-01-13T09:04:59.465Z,101530.30
2018-01-13T09:06:02.570Z,101533.40
2018-01-13T09:07:05.066Z,101526.61
2018-01-13T09:08:07.544Z,101530.17
2018-01-13T09:09:10.030Z,101524.23
2018-01-13T09:10:12.486Z,101523.08
2018-01-13T09:11:14.941Z,101526.91
2018-01-13T09:12:17.428Z,101528.81
2018-01-13T09:13:19.920Z,101525.22
2018-01-13T09:14:22.382Z,101525.11
2018-01-13T09:15:24.847Z,101530.42
2018-01-13T09:16:27.590Z,101530.75
2018-01-13T09:17:30.064Z,101531.05
2018-01-13T09:18:32.564Z,101537.34
2018-01-13T09:19:35.045Z,101535.52
2018-01-13T09:20:37.555Z,101534.39
2018-01-13T09:21:39.985Z,101533.05
2018-01-13T09:22:42.460Z,101543.62
2018-01-13T09:23:44.931Z,101544.51
2018-01-13T09:24:47.389Z,101537.69
2018-01-13T09:25:49.845Z,101543.09
2018-01-13T09:26:52.324Z,101533.35
2018-01-13T09:27:54.809Z,101537.52
2018-01-13T09:28:57.296Z,101538.37
2018-01-13T09:29:59.761Z,101532.02
2018-01-13T09:31:02.222Z,101538.59
2018-01-13T09:32:04.682Z,101538.53
2018-01-13T09:33:08.320Z,101539.53
2018-01-13T09:34:10.814Z,101541.11
2018-01-13T09:35:13.285Z,101546.78
2018-01-13T09:36:15.741Z,101540.91
2018-01-13T09:37:18.260Z,101545.33
2018-01-13T09:38:20.728Z,101540.34
2018-01-13T09:39:23.204Z,101530.93
2018-01-13T09:40:25.853Z,101540.34
2018-01-13T09:41:31.835Z,101535.84
2018-01-13T09:42:34.468Z,101533.00
2018-01-13T09:43:37.944Z,101539.97
2018-01-13T09:44:40.449Z,101541.19
2018-01-13T09:45:42.917Z,101545.00
2018-01-13T09:46:45.392Z,101542.55
2018-01-13T09:47:47.858Z,101545.79
2018-01-13T09:48:50.334Z,101543.41
2018-01-13T09:49:52.798Z,101544.98
2018-01-13T09:50:55.257Z,101545.05
2018-01-13T09:51:57.714Z,101544.47
2018-01-13T09:53:00.192Z,101544.46
2018-01-13T09:54:02.649Z,101547.48
2018-01-13T09:55:05.114Z,101543.45
2018-01-13T09:56:07.570Z,101540.66
2018-01-13T09:57:10.030Z,101540.66
2018-01-13T09:58:12.505Z,101543.97
2018-01-13T09:59:14.972Z,101538.86
2018-01-13T10:00:17.529Z,101546.33
2018-01-13T10:01:19.986Z,101545.13
2018-01-13T10:02:22.444Z,101536.36
2018-01-13T10:03:24.941Z,101539.16
2018-01-13T10:04:27.407Z,101537.12
2018-01-13T10:05:29.869Z,101544.83
2018-01-13T10:06:32.319Z,101536.02
2018-01-13T10:07:34.789Z,101528.37
2018-01-13T10:08:37.267Z,101542.55
2018-01-13T10:09:39.727Z,101539.88
2018-01-13T10:10:42.208Z,101548.30
2018-01-13T10:11:44.681Z,101540.91
2018-01-13T10:12:47.157Z,101540.78
2018-01-13T10:13:49.709Z,101539.08
2018-01-13T10:14:52.188Z,101538.89
2018-01-13T10:15:54.646Z,101534.57
2018-01-13T10:16:57.120Z,101539.13
2018-01-13T10:17:59.578Z,101525.09
2018-01-13T10:19:02.056Z,101537.12
2018-01-13T10:20:04.514Z,101530.12
2018-01-13T10:21:06.975Z,101527.92
2018-01-13T10:22:09.452Z,101527.77
2018-01-13T10:23:11.924Z,101526.05
2018-01-13T10:24:14.385Z,101528.84
2018-01-13T10:25:16.847Z,101523.86
2018-01-13T10:26:19.312Z,101513.33
2018-01-13T10:27:21.770Z,101521.98
2018-01-13T10:28:24.244Z,101522.28
2018-01-13T10:29:26.731Z,101512.96
2018-01-13T10:30:29.210Z,101525.11
2018-01-13T10:31:31.737Z,101517.45
2018-01-13T10:32:34.205Z,101510.95
2018-01-13T10:33:36.678Z,101525.55
2018-01-13T10:34:39.146Z,101520.13
2018-01-13T10:35:41.616Z,101529.65
2018-01-13T10:36:44.112Z,101521.22
2018-01-13T10:37:46.569Z,101516.11
2018-01-13T10:38:49.048Z,101524.08
2018-01-13T10:39:51.506Z,101525.23
2018-01-13T10:40:54.030Z,101515.59
2018-01-13T10:41:56.492Z,101521.25
2018-01-13T10:42:58.967Z,101519.16
2018-01-13T10:44:01.440Z,101515.05
2018-01-13T10:45:03.931Z,101512.05
2018-01-13T10:46:06.404Z,101514.41
2018-01-13T10:47:08.862Z,101518.53
2018-01-13T10:48:11.326Z,101516.94
2018-01-13T10:49:13.781Z,101517.27
2018-01-13T10:50:16.234Z,101510.46
2018-01-13T10:51:18.707Z,101507.64
2018-01-13T10:52:22.045Z,101510.36
2018-01-13T10:53:24.498Z,101503.91
2018-01-13T10:54:26.954Z,101502.53
2018-01-13T10:55:29.409Z,101495.95
2018-01-13T10:56:31.866Z,101504.22
2018-01-13T10:57:34.326Z,101491.13
2018-01-13T10:58:36.801Z,101499.73
2018-01-13T10:59:39.281Z,101496.42
2018-01-13T11:00:41.752Z,101498.39
2018-01-13T11:01:44.227Z,101501.95
2018-01-13T11:02:46.686Z,101495.27
2018-01-13T11:03:49.148Z,101499.50
2018-01-13T11:04:51.611Z,101501.56
2018-01-13T11:05:54.084Z,101499.94
2018-01-13T11:06:56.533Z,101488.54
2018-01-13T11:07:59.002Z,101489.41
2018-01-13T11:09:01.465Z,101494.80
2018-01-13T11:10:03.918Z,101492.30
2018-01-13T11:11:06.388Z,101490.99
2018-01-13T11:12:08.988Z,101480.54
2018-01-13T11:13:11.451Z,101482.56
2018-01-13T11:14:13.935Z,101484.42
2018-01-13T11:15:16.537Z,101486.48
2018-01-13T11:16:19.008Z,101482.23
2018-01-13T11:17:21.465Z,101485.25
2018-01-13T11:18:23.937Z,101484.37
2018-01-13T11:19:26.394Z,101490.11
2018-01-13T11:20:28.880Z,101481.82
2018-01-13T11:21:31.361Z,101482.88
2018-01-13T11:22:33.929Z,101477.47
2018-01-13T11:23:36.386Z,101483.56
2018-01-13T11:24:38.847Z,101490.95
2018-01-13T11:25:41.302Z,101482.97
2018-01-13T11:26:43.754Z,101481.98
2018-01-13T11:27:46.211Z,101487.00
2018-01-13T11:28:48.671Z,101473.44
2018-01-13T11:29:51.138Z,101474.06
2018-01-13T11:30:53.618Z,101476.72
2018-01-13T11:31:56.082Z,101471.97
2018-01-13T11:32:58.552Z,101473.84
2018-01-13T11:34:01.017Z,101471.50
2018-01-13T11:35:03.492Z,101469.59
2018-01-13T11:36:05.949Z,101464.16
2018-01-13T11:37:08.413Z,101459.34
2018-01-13T11:38:10.888Z,101457.69
2018-01-13T11:39:13.348Z,101469.00
2018-01-13T11:40:15.815Z,101459.63
2018-01-13T11:41:18.277Z,101459.52
2018-01-13T11:42:20.752Z,101461.20
2018-01-13T11:43:23.244Z,101460.70
2018-01-13T11:44:25.715Z,101457.80
2018-01-13T11:45:28.174Z,101459.50
2018-01-13T11:46:30.765Z,101450.00
2018-01-13T11:47:33.234Z,101467.83
2018-01-13T11:48:35.709Z,101459.39
2018-01-13T11:49:38.197Z,101453.99
2018-01-13T11:50:40.658Z,101455.13
2018-01-13T11:51:43.129Z,101456.42
2018-01-13T11:52:45.586Z,101451.47